Terminal Aerodrome Forecast
Issued by NWS

Home | Current Version | Previous Version | Text Only | Print | Product List | Glossary On
Versions: 1 2 3 4 5 6 7 8 9 10 11 12 13 14 15 16 17 18 19 20 21 22 23 24 25 26 27 28
121
FTUS44 KMAF 081519 AAF
TAFPEQ
TAF AMD
KPEQ 081519Z 0815/0912 05011KT P6SM SCT008 OVC030
      TEMPO 0815/0818 5SM -SN BKN020
     FM081800 06010G20KT P6SM OVC035
     FM082000 08004KT P6SM OVC040=

USA.gov is the U.S. government's official web portal to all federal, state and local government web resources and services.